Time;durP1;ratioP1;P1;durP2;ratioP2;P2;SDS_P1;SDS_P2;PMS_P1;PMS_P2;Temp;Humidity;BMP_temperature;BMP_pressure;BME280_temperature;BME280_humidity;BME280_pressure;Samples;Min_cycle;Max_cycle;Signal;HPM_P1;HPM_P2
2023/09/28 00:02:54;;;;;;;17.15;15.35;;;17.50;99.90;;;;;;4985501;28;20049;-46
2023/09/28 00:05:20;;;;;;;16.55;14.88;;;17.50;99.90;;;;;;4991763;28;20053;-46
2023/09/28 00:07:47;;;;;;;17.52;15.95;;;17.50;99.90;;;;;;4980764;28;20351;-48
2023/09/28 00:10:15;;;;;;;15.63;14.02;;;17.60;99.90;;;;;;4979930;28;20053;-47
2023/09/28 00:12:46;;;;;;;16.40;14.88;;;17.60;99.90;;;;;;4998364;28;20056;-46
2023/09/28 00:15:12;;;;;;;17.10;15.50;;;17.60;99.90;;;;;;4980244;28;20085;-49
2023/09/28 00:17:39;;;;;;;15.82;14.57;;;17.60;99.90;;;;;;4980332;28;20144;-46
2023/09/28 00:20:13;;;;;;;17.25;15.20;;;17.60;99.90;;;;;;4998277;28;20072;-49
2023/09/28 00:22:42;;;;;;;16.00;14.57;;;17.60;99.90;;;;;;4980223;28;20722;-45
2023/09/28 00:25:11;;;;;;;17.15;14.70;;;17.60;99.90;;;;;;4979482;28;20041;-45
2023/09/28 00:27:43;;;;;;;17.02;15.52;;;17.50;99.90;;;;;;4998437;28;20045;-47
2023/09/28 00:30:13;;;;;;;16.08;14.45;;;17.50;99.90;;;;;;4980815;28;20149;-50
2023/09/28 00:32:41;;;;;;;16.85;15.23;;;17.50;99.90;;;;;;4998452;28;20564;-47
2023/09/28 00:35:07;;;;;;;16.13;14.50;;;17.50;99.90;;;;;;4997727;28;20053;-47
2023/09/28 00:37:33;;;;;;;16.25;14.57;;;17.50;99.90;;;;;;4980674;28;20053;-48
2023/09/28 00:39:59;;;;;;;15.80;14.38;;;17.50;99.90;;;;;;4998623;28;20059;-46
2023/09/28 00:42:28;;;;;;;14.63;13.25;;;17.40;99.90;;;;;;4970756;28;20569;-46
2023/09/28 00:44:54;;;;;;;18.63;14.23;;;17.40;99.90;;;;;;4981964;28;20145;-47
2023/09/28 00:47:20;;;;;;;16.20;13.80;;;17.40;99.90;;;;;;5001618;28;20133;-47
2023/09/28 00:49:46;;;;;;;16.08;14.55;;;17.40;99.90;;;;;;4983856;28;20042;-46
2023/09/28 00:52:16;;;;;;;14.95;13.45;;;17.40;99.90;;;;;;4983646;28;20096;-48
2023/09/28 00:54:45;;;;;;;13.75;12.38;;;17.30;99.90;;;;;;4983172;28;20053;-49
2023/09/28 00:57:12;;;;;;;13.55;12.27;;;17.30;99.90;;;;;;4983333;28;20442;-49
2023/09/28 00:59:38;;;;;;;14.82;13.43;;;17.30;99.90;;;;;;4970966;28;20056;-45
2023/09/28 01:02:03;;;;;;;14.68;13.13;;;17.30;99.90;;;;;;4995462;28;20038;-46
2023/09/28 01:04:29;;;;;;;14.80;13.25;;;17.30;99.90;;;;;;4983418;28;20048;-46
2023/09/28 01:06:56;;;;;;;15.60;11.93;;;17.30;99.90;;;;;;4983150;28;20057;-46
2023/09/28 01:09:23;;;;;;;14.10;12.80;;;17.30;99.90;;;;;;4983668;28;20516;-46
2023/09/28 01:11:51;;;;;;;15.07;13.55;;;17.30;99.90;;;;;;5001393;28;20049;-47
2023/09/28 01:14:17;;;;;;;15.13;13.30;;;17.20;99.90;;;;;;4983588;28;20264;-45
2023/09/28 01:16:43;;;;;;;13.93;12.52;;;17.20;99.90;;;;;;4983411;28;20578;-44
2023/09/28 01:19:09;;;;;;;13.40;12.00;;;17.20;99.90;;;;;;5001885;28;20049;-45
2023/09/28 01:21:35;;;;;;;13.90;12.50;;;17.10;99.90;;;;;;5001374;28;20382;-45
2023/09/28 01:24:02;;;;;;;13.93;12.32;;;17.10;99.90;;;;;;4983034;28;20069;-45
2023/09/28 01:26:30;;;;;;;15.00;13.48;;;17.10;99.90;;;;;;5000866;28;20054;-45
2023/09/28 01:28:57;;;;;;;13.80;12.45;;;17.00;99.90;;;;;;5001045;28;20049;-46
2023/09/28 01:31:23;;;;;;;14.70;13.02;;;16.90;99.90;;;;;;4967349;28;20156;-46
2023/09/28 01:33:49;;;;;;;14.07;12.70;;;16.90;99.90;;;;;;4983261;28;20580;-46
2023/09/28 01:36:15;;;;;;;15.13;13.57;;;16.80;99.90;;;;;;5000137;28;20833;-45
2023/09/28 01:39:03;;;;;;;14.73;12.82;;;16.80;99.90;;;;;;5000719;28;20092;-44
2023/09/28 01:41:32;;;;;;;14.85;13.48;;;16.80;99.90;;;;;;4997557;28;20449;-46
2023/09/28 01:43:58;;;;;;;13.55;12.13;;;16.70;99.90;;;;;;4978743;28;20156;-48
2023/09/28 01:46:23;;;;;;;14.63;13.32;;;16.70;99.90;;;;;;4981980;28;20041;-48
2023/09/28 01:48:49;;;;;;;14.07;12.77;;;16.60;99.90;;;;;;4982882;28;20398;-45
2023/09/28 01:51:15;;;;;;;13.98;12.68;;;16.60;99.90;;;;;;5000824;28;20597;-46
2023/09/28 01:53:41;;;;;;;14.38;13.00;;;16.60;99.90;;;;;;4982644;28;20046;-46
2023/09/28 01:56:07;;;;;;;13.90;12.57;;;16.50;99.90;;;;;;4966728;28;20349;-47
2023/09/28 01:58:33;;;;;;;14.00;12.63;;;16.50;99.90;;;;;;5000691;28;20509;-46
2023/09/28 02:00:58;;;;;;;13.13;11.88;;;16.50;99.90;;;;;;4997588;28;20054;-46
2023/09/28 02:03:25;;;;;;;13.15;11.63;;;16.40;99.90;;;;;;4999841;28;20091;-45
2023/09/28 02:05:52;;;;;;;13.00;11.63;;;16.40;99.90;;;;;;4998930;28;20392;-46
2023/09/28 02:08:18;;;;;;;14.32;11.60;;;16.40;99.90;;;;;;4965765;28;20124;-44
2023/09/28 02:10:44;;;;;;;11.95;10.85;;;16.40;99.90;;;;;;4982489;28;20302;-46
2023/09/28 02:13:10;;;;;;;12.40;11.20;;;16.40;99.90;;;;;;4999930;28;20045;-46
2023/09/28 02:15:36;;;;;;;13.00;11.52;;;16.30;99.90;;;;;;4999554;28;20038;-46
2023/09/28 02:18:04;;;;;;;14.13;12.07;;;16.30;99.90;;;;;;5000512;28;20045;-47
2023/09/28 02:20:31;;;;;;;12.85;11.55;;;16.30;99.90;;;;;;5000670;28;20057;-48
2023/09/28 02:22:57;;;;;;;12.70;11.50;;;16.20;99.90;;;;;;4982899;28;20042;-45
2023/09/28 02:25:24;;;;;;;13.50;12.18;;;16.20;99.90;;;;;;4999898;28;20077;-48
2023/09/28 02:27:51;;;;;;;12.55;11.40;;;16.20;99.90;;;;;;4982580;28;20042;-48
2023/09/28 02:30:20;;;;;;;13.07;11.77;;;16.20;99.90;;;;;;5000679;28;20433;-47
2023/09/28 02:32:47;;;;;;;13.38;11.57;;;16.10;99.90;;;;;;4982493;28;20133;-49
2023/09/28 02:35:14;;;;;;;12.55;11.10;;;16.10;99.90;;;;;;4999193;28;20079;-46
2023/09/28 02:37:45;;;;;;;13.23;11.82;;;16.10;99.90;;;;;;4965850;28;20587;-45
2023/09/28 02:40:13;;;;;;;12.32;11.23;;;16.10;99.90;;;;;;4965964;28;20085;-47
2023/09/28 02:42:39;;;;;;;12.45;11.20;;;16.00;99.90;;;;;;4969874;28;20060;-46
2023/09/28 02:45:11;;;;;;;12.02;10.82;;;16.00;99.90;;;;;;4981046;28;20268;-50
2023/09/28 02:47:41;;;;;;;12.98;11.82;;;16.00;99.90;;;;;;4999639;28;20057;-46
2023/09/28 02:50:11;;;;;;;13.82;11.43;;;16.00;99.90;;;;;;4981913;28;20622;-45
2023/09/28 02:52:41;;;;;;;12.85;11.15;;;16.00;99.90;;;;;;4999846;28;20073;-44
2023/09/28 02:55:08;;;;;;;12.32;11.23;;;16.00;99.90;;;;;;4980839;28;20045;-46
2023/09/28 02:57:37;;;;;;;14.18;12.35;;;16.00;99.90;;;;;;4965835;28;20077;-49
2023/09/28 03:00:36;;;;;;;12.27;11.18;;;15.90;99.90;;;;;;4982073;28;20124;-45
2023/09/28 03:02:58;;;;;;;12.57;11.27;;;15.90;99.90;;;;;;4984528;28;20060;-45
2023/09/28 03:05:26;;;;;;;12.23;11.00;;;15.80;99.90;;;;;;4995910;28;20050;-46
2023/09/28 03:07:51;;;;;;;13.70;12.30;;;15.80;99.90;;;;;;4999676;28;20199;-46
2023/09/28 03:10:18;;;;;;;14.05;12.40;;;15.80;99.90;;;;;;4998279;28;20100;-46
2023/09/28 03:12:45;;;;;;;12.27;11.20;;;15.80;99.90;;;;;;4987618;28;20637;-46
2023/09/28 03:15:11;;;;;;;13.55;12.10;;;15.70;99.90;;;;;;4999119;28;20448;-45
2023/09/28 03:17:39;;;;;;;12.75;11.55;;;15.60;99.90;;;;;;4999645;28;20065;-46
2023/09/28 03:20:17;;;;;;;13.85;12.55;;;15.60;99.90;;;;;;4981125;28;20054;-47
2023/09/28 03:22:44;;;;;;;13.43;12.13;;;15.60;99.90;;;;;;4999384;28;20050;-45
2023/09/28 03:25:16;;;;;;;14.27;12.77;;;15.50;99.90;;;;;;4980581;28;20209;-44
2023/09/28 03:27:44;;;;;;;13.65;12.52;;;15.60;99.90;;;;;;4964879;28;20049;-44
2023/09/28 03:30:11;;;;;;;14.80;13.02;;;15.60;99.90;;;;;;4998746;28;20392;-49
2023/09/28 03:32:40;;;;;;;15.40;13.38;;;15.60;99.90;;;;;;4999064;28;20037;-48
2023/09/28 03:35:13;;;;;;;15.38;12.75;;;15.50;99.90;;;;;;4980032;28;20160;-47
2023/09/28 03:37:40;;;;;;;14.07;12.75;;;15.50;99.90;;;;;;4998860;28;20041;-47
2023/09/28 03:40:10;;;;;;;14.32;12.77;;;15.50;99.90;;;;;;4980704;28;20054;-45
2023/09/28 03:42:40;;;;;;;17.88;13.13;;;15.50;99.90;;;;;;4987040;28;20049;-46
2023/09/28 03:45:10;;;;;;;15.10;13.68;;;15.40;99.90;;;;;;4998318;28;20049;-45
2023/09/28 03:47:41;;;;;;;14.73;12.25;;;15.40;99.90;;;;;;4998477;28;20045;-45
2023/09/28 03:50:12;;;;;;;15.38;13.82;;;15.40;99.90;;;;;;4980792;28;20474;-49
2023/09/28 03:52:38;;;;;;;13.68;12.27;;;15.40;99.90;;;;;;4998806;28;20085;-46
2023/09/28 03:55:15;;;;;;;16.15;13.55;;;15.30;99.90;;;;;;4997970;28;20046;-46
2023/09/28 03:57:42;;;;;;;15.35;13.75;;;15.30;99.90;;;;;;4998986;28;20368;-45
2023/09/28 04:00:15;;;;;;;15.30;13.38;;;15.30;99.90;;;;;;4998485;28;20216;-47
2023/09/28 04:02:45;;;;;;;;;;;15.30;99.90;;;;;;4990300;28;20180;-47
2023/09/28 04:05:11;;;;;;;14.43;12.93;;;15.20;99.90;;;;;;4963028;28;19925;-49
2023/09/28 04:07:38;;;;;;;15.85;14.45;;;15.20;99.90;;;;;;4998380;28;20042;-46
2023/09/28 04:10:04;;;;;;;15.30;13.77;;;15.10;99.90;;;;;;4998448;28;20227;-46
2023/09/28 04:12:30;;;;;;;15.50;13.85;;;15.20;99.90;;;;;;4997513;28;20061;-47
2023/09/28 04:14:56;;;;;;;16.85;14.05;;;15.20;99.90;;;;;;4997676;28;20041;-46
2023/09/28 04:17:21;;;;;;;16.45;13.45;;;15.20;99.90;;;;;;4998912;28;20041;-46
2023/09/28 04:19:47;;;;;;;15.40;13.68;;;15.20;99.90;;;;;;4984810;28;20053;-48
2023/09/28 04:22:13;;;;;;;14.15;12.75;;;15.20;99.90;;;;;;4984520;28;20125;-46
2023/09/28 04:24:39;;;;;;;15.32;13.73;;;15.20;99.90;;;;;;5002052;28;20201;-46
2023/09/28 04:27:07;;;;;;;17.08;13.38;;;15.30;99.90;;;;;;5001865;28;20117;-46
2023/09/28 04:29:36;;;;;;;13.68;11.88;;;15.30;99.90;;;;;;4984356;28;20112;-49
2023/09/28 04:32:02;;;;;;;13.80;10.15;;;15.40;99.90;;;;;;4968683;28;20050;-47
2023/09/28 04:34:29;;;;;;;15.68;8.35;;;15.30;99.90;;;;;;4983966;28;20394;-46
2023/09/28 04:36:58;;;;;;;14.90;6.85;;;15.50;99.90;;;;;;5002052;28;20046;-48
2023/09/28 04:39:24;;;;;;;13.50;7.03;;;15.50;99.90;;;;;;4984553;28;20088;-47
2023/09/28 04:41:54;;;;;;;16.90;6.25;;;15.50;99.90;;;;;;4978698;28;20054;-47
2023/09/28 04:44:20;;;;;;;17.50;6.25;;;15.60;99.90;;;;;;4995511;28;20088;-46
2023/09/28 04:46:50;;;;;;;13.27;5.32;;;15.70;99.90;;;;;;4967815;28;20092;-46
2023/09/28 04:49:19;;;;;;;14.68;6.05;;;15.60;99.90;;;;;;5002266;28;20074;-45
2023/09/28 04:51:45;;;;;;;18.35;6.40;;;15.70;99.90;;;;;;4984236;28;20037;-44
2023/09/28 04:54:11;;;;;;;14.15;5.47;;;15.70;99.90;;;;;;5001444;28;20525;-47
2023/09/28 04:56:38;;;;;;;16.50;5.80;;;15.70;99.90;;;;;;5001584;28;20052;-45
2023/09/28 04:59:03;;;;;;;23.23;7.03;;;15.60;99.90;;;;;;5002073;28;20053;-48
2023/09/28 05:01:29;;;;;;;14.57;5.55;;;15.70;99.90;;;;;;5000346;28;20409;-44
2023/09/28 05:03:55;;;;;;;18.85;8.05;;;15.60;99.90;;;;;;4960454;28;20471;-44
2023/09/28 05:06:21;;;;;;;14.90;7.57;;;15.50;99.90;;;;;;5001379;28;20041;-49
2023/09/28 05:08:47;;;;;;;12.73;7.78;;;15.50;99.90;;;;;;5001827;28;20042;-46
2023/09/28 05:11:13;;;;;;;18.27;8.88;;;15.40;99.90;;;;;;4983232;28;20583;-44
2023/09/28 05:13:38;;;;;;;14.57;8.70;;;15.40;99.90;;;;;;5001252;28;20046;-46
2023/09/28 05:16:04;;;;;;;17.52;9.27;;;15.30;99.90;;;;;;5001018;28;20054;-45
2023/09/28 05:18:30;;;;;;;12.82;8.63;;;15.20;99.90;;;;;;5001564;28;20073;-47
2023/09/28 05:20:56;;;;;;;15.18;8.27;;;15.20;99.90;;;;;;5001442;28;20530;-44
2023/09/28 05:23:21;;;;;;;15.80;7.50;;;15.20;99.90;;;;;;5000650;28;20073;-46
2023/09/28 05:25:47;;;;;;;18.27;8.07;;;15.10;99.90;;;;;;5001100;28;20121;-46
2023/09/28 05:28:14;;;;;;;16.15;7.47;;;15.10;99.90;;;;;;5001420;28;20034;-48
2023/09/28 05:30:39;;;;;;;15.55;6.47;;;15.00;99.90;;;;;;4983913;28;20084;-45
2023/09/28 05:33:05;;;;;;;14.60;6.95;;;15.00;99.90;;;;;;5001332;28;20121;-45
2023/09/28 05:35:31;;;;;;;19.77;7.50;;;15.00;99.90;;;;;;5000890;28;20049;-44
2023/09/28 05:37:56;;;;;;;17.73;5.95;;;14.90;99.90;;;;;;4983481;28;20278;-46
2023/09/28 05:40:22;;;;;;;24.10;6.40;;;15.00;99.90;;;;;;5001123;28;20141;-47
2023/09/28 05:42:48;;;;;;;18.17;6.32;;;15.00;99.90;;;;;;4970647;28;20073;-46
2023/09/28 05:45:14;;;;;;;28.55;6.45;;;15.00;99.90;;;;;;4983022;28;20099;-44
2023/09/28 05:47:40;;;;;;;21.17;5.70;;;15.00;99.90;;;;;;5001263;28;20050;-45
2023/09/28 05:50:07;;;;;;;24.73;6.22;;;15.00;99.90;;;;;;4951475;28;20140;-46
2023/09/28 05:52:33;;;;;;;26.52;6.55;;;15.00;99.90;;;;;;4983671;28;20398;-45
2023/09/28 05:54:59;;;;;;;28.95;6.03;;;15.10;99.90;;;;;;4968437;28;20049;-45
2023/09/28 05:57:24;;;;;;;24.52;6.13;;;15.20;99.90;;;;;;5013810;28;20037;-45
2023/09/28 05:59:50;;;;;;;20.50;5.45;;;15.20;99.90;;;;;;4983364;28;20342;-48
2023/09/28 06:02:16;;;;;;;27.90;6.35;;;15.30;99.90;;;;;;4994970;28;20580;-46
2023/09/28 06:04:42;;;;;;;29.90;6.00;;;15.40;99.90;;;;;;4975030;28;20467;-45
2023/09/28 06:07:10;;;;;;;33.42;6.85;;;15.40;99.90;;;;;;4982602;28;20470;-44
2023/09/28 06:09:37;;;;;;;27.45;5.80;;;15.40;99.90;;;;;;4982951;28;20600;-46
2023/09/28 06:12:03;;;;;;;28.70;6.22;;;15.40;99.90;;;;;;5000804;28;20045;-45
2023/09/28 06:14:28;;;;;;;33.70;7.80;;;15.40;99.90;;;;;;5000343;28;20054;-47
2023/09/28 06:16:54;;;;;;;24.67;6.22;;;15.40;99.90;;;;;;4999980;28;20133;-45
2023/09/28 06:19:20;;;;;;;36.33;6.90;;;15.50;99.90;;;;;;4982451;28;20045;-45
2023/09/28 06:21:46;;;;;;;32.00;7.05;;;15.50;99.90;;;;;;5000271;28;20465;-45
2023/09/28 06:24:11;;;;;;;25.23;5.38;;;15.50;99.90;;;;;;4999953;28;20573;-45
2023/09/28 06:26:40;;;;;;;32.95;7.20;;;15.50;99.90;;;;;;4982165;28;20445;-44
2023/09/28 06:29:06;;;;;;;34.70;8.00;;;15.60;99.90;;;;;;5000282;28;20337;-45
2023/09/28 06:31:33;;;;;;;30.20;6.30;;;15.60;99.90;;;;;;4982640;28;20073;-46
2023/09/28 06:33:58;;;;;;;28.05;5.90;;;15.70;99.90;;;;;;4999600;28;20061;-45
2023/09/28 06:36:28;;;;;;;34.35;8.52;;;15.90;99.90;;;;;;5013210;28;20044;-45
2023/09/28 06:38:55;;;;;;;34.88;7.53;;;16.20;99.90;;;;;;5011177;28;20076;-46
2023/09/28 06:41:21;;;;;;;31.17;5.93;;;16.40;99.90;;;;;;4993795;28;20328;-45
2023/09/28 06:43:48;;;;;;;29.13;5.38;;;16.60;99.90;;;;;;4998431;28;20050;-44
2023/09/28 06:46:14;;;;;;;28.90;6.65;;;16.80;99.90;;;;;;5010147;28;20564;-45
2023/09/28 06:48:40;;;;;;;24.08;5.88;;;17.00;99.90;;;;;;5015322;28;20508;-46
2023/09/28 06:51:05;;;;;;;34.35;8.10;;;17.20;99.90;;;;;;4999520;28;20251;-45
2023/09/28 06:53:32;;;;;;;29.98;5.63;;;17.50;99.90;;;;;;4998476;28;20393;-45
2023/09/28 06:55:59;;;;;;;25.70;6.05;;;17.70;99.90;;;;;;5014560;28;20041;-48
2023/09/28 06:58:25;;;;;;;22.48;6.53;;;18.00;99.90;;;;;;5016213;28;20037;-44
2023/09/28 07:00:51;;;;;;;27.77;6.82;;;18.10;99.90;;;;;;5017288;28;20151;-44
2023/09/28 07:03:16;;;;;;;27.90;6.30;;;18.30;99.90;;;;;;4993524;28;20451;-45
2023/09/28 07:05:42;;;;;;;23.08;5.72;;;18.40;99.90;;;;;;4980177;28;20406;-45
2023/09/28 07:08:08;;;;;;;32.90;7.18;;;18.50;99.90;;;;;;5014110;28;20107;-45
2023/09/28 07:10:37;;;;;;;24.70;5.63;;;18.70;99.90;;;;;;5009827;28;20563;-47
2023/09/28 07:13:05;;;;;;;26.42;5.60;;;18.90;99.90;;;;;;4997066;28;20052;-45
2023/09/28 07:15:34;;;;;;;29.60;7.05;;;19.10;99.90;;;;;;5014424;28;20049;-45
2023/09/28 07:18:00;;;;;;;30.60;6.63;;;19.00;99.90;;;;;;5015134;28;20041;-45
2023/09/28 07:20:27;;;;;;;26.08;6.30;;;19.00;99.90;;;;;;4974574;28;20049;-45
2023/09/28 07:22:53;;;;;;;27.02;6.10;;;18.80;99.90;;;;;;4995720;28;20049;-48
2023/09/28 07:25:19;;;;;;;26.42;6.47;;;18.80;99.90;;;;;;4989805;28;20046;-47
2023/09/28 07:27:49;;;;;;;26.38;6.50;;;18.80;99.90;;;;;;4978763;28;20125;-46
2023/09/28 07:30:15;;;;;;;27.90;5.97;;;18.70;99.90;;;;;;4998690;28;20037;-47
2023/09/28 07:32:41;;;;;;;27.27;6.97;;;18.90;99.90;;;;;;4998196;28;20116;-46
2023/09/28 07:35:11;;;;;;;24.13;6.13;;;18.80;99.90;;;;;;4980482;28;20539;-45
2023/09/28 07:37:40;;;;;;;26.15;6.13;;;18.80;99.90;;;;;;4981120;28;20048;-47
2023/09/28 07:40:12;;;;;;;36.88;7.22;;;18.70;99.90;;;;;;4981742;28;20532;-45
2023/09/28 07:42:38;;;;;;;27.27;6.47;;;18.70;99.90;;;;;;4973152;28;20064;-46
2023/09/28 07:45:05;;;;;;;23.83;6.88;;;18.70;99.90;;;;;;4998401;28;20189;-44
2023/09/28 07:47:30;;;;;;;25.92;6.00;;;18.60;99.90;;;;;;4981827;28;20057;-45
2023/09/28 07:49:56;;;;;;;24.70;6.10;;;18.60;99.90;;;;;;4986011;28;20050;-47
2023/09/28 07:52:21;;;;;;;20.95;5.70;;;18.60;99.90;;;;;;4984676;28;20108;-49
2023/09/28 07:54:47;;;;;;;24.85;6.47;;;18.60;99.90;;;;;;4986935;28;20319;-48
2023/09/28 07:57:13;;;;;;;25.77;5.88;;;18.60;99.90;;;;;;4987772;28;20536;-45
2023/09/28 07:59:39;;;;;;;26.63;7.32;;;18.70;99.90;;;;;;4989932;28;20376;-48
2023/09/28 08:02:09;;;;;;;24.58;6.70;;;18.70;99.90;;;;;;4985145;28;20525;-47
2023/09/28 08:04:38;;;;;;;25.45;6.60;;;18.80;99.90;;;;;;4973022;28;20034;-46
2023/09/28 08:07:04;;;;;;;29.23;6.97;;;18.90;99.90;;;;;;4988907;28;20128;-45
2023/09/28 08:09:32;;;;;;;32.50;7.30;;;19.10;99.90;;;;;;4987869;28;20530;-48
2023/09/28 08:11:58;;;;;;;31.45;6.18;;;19.20;99.90;;;;;;4988971;28;20505;-48
2023/09/28 08:14:24;;;;;;;34.25;7.80;;;19.30;99.90;;;;;;4997776;28;20505;-46
2023/09/28 08:16:50;;;;;;;28.63;7.55;;;19.40;99.90;;;;;;4997414;28;20172;-46
2023/09/28 08:19:16;;;;;;;27.65;6.65;;;19.50;99.90;;;;;;4998662;28;20041;-48
2023/09/28 08:21:42;;;;;;;28.30;7.30;;;19.60;99.90;;;;;;4998135;28;20046;-47
2023/09/28 08:24:08;;;;;;;23.42;6.50;;;19.70;99.90;;;;;;4963533;28;20464;-46
2023/09/28 08:26:38;;;;;;;27.23;6.32;;;19.80;99.90;;;;;;4997656;28;20042;-48
2023/09/28 08:29:04;;;;;;;23.35;5.95;;;19.90;99.90;;;;;;4998364;28;20084;-47
2023/09/28 08:31:32;;;;;;;23.88;7.13;;;20.00;99.90;;;;;;4980816;28;20496;-47
2023/09/28 08:34:02;;;;;;;31.40;7.63;;;20.00;99.90;;;;;;4997959;28;20129;-46
2023/09/28 08:36:29;;;;;;;26.42;6.25;;;20.00;99.90;;;;;;4997579;28;20120;-46
2023/09/28 08:38:58;;;;;;;23.90;6.97;;;20.00;99.90;;;;;;4980379;28;20239;-45
2023/09/28 08:41:40;;;;;;;28.40;7.05;;;20.00;99.90;;;;;;4978202;28;20057;-46
2023/09/28 08:44:06;;;;;;;29.00;6.80;;;20.00;99.90;;;;;;4990277;28;20469;-46
2023/09/28 08:46:38;;;;;;;30.05;6.45;;;20.00;99.90;;;;;;4998107;28;20049;-49
2023/09/28 08:49:05;;;;;;;24.52;7.72;;;19.90;99.90;;;;;;4998811;28;20034;-46
2023/09/28 08:51:32;;;;;;;32.15;7.57;;;19.90;99.90;;;;;;4980359;28;20050;-46
2023/09/28 08:54:05;;;;;;;22.80;6.93;;;19.70;99.90;;;;;;4997332;28;20565;-50
2023/09/28 08:56:41;;;;;;;22.73;6.95;;;19.60;99.90;;;;;;4967613;28;20120;-46
2023/09/28 08:59:09;;;;;;;25.15;7.88;;;19.60;99.90;;;;;;4997848;28;20077;-48
2023/09/28 09:01:36;;;;;;;31.88;7.65;;;19.60;99.90;;;;;;4995833;28;20048;-46
2023/09/28 09:04:03;;;;;;;24.42;6.22;;;19.70;99.90;;;;;;4976539;28;20603;-48
2023/09/28 09:06:30;;;;;;;27.75;7.82;;;19.70;99.90;;;;;;4983180;28;20081;-49
2023/09/28 09:09:05;;;;;;;28.08;7.07;;;19.70;99.90;;;;;;5001122;28;20053;-50
2023/09/28 09:11:33;;;;;;;22.17;6.70;;;19.70;99.90;;;;;;4990802;28;20739;-48
2023/09/28 09:13:59;;;;;;;24.67;5.97;;;19.70;99.90;;;;;;4985604;28;20077;-50
2023/09/28 09:16:30;;;;;;;26.33;6.45;;;19.70;99.90;;;;;;5000913;28;20189;-49
2023/09/28 09:18:56;;;;;;;23.25;7.03;;;19.70;99.90;;;;;;5001438;28;20836;-48
2023/09/28 09:21:23;;;;;;;22.77;7.30;;;19.80;99.90;;;;;;4983993;28;20350;-48
2023/09/28 09:24:02;;;;;;;27.83;6.28;;;19.70;99.90;;;;;;4966963;28;20058;-50
2023/09/28 09:26:37;;;;;;;26.63;6.72;;;19.50;99.90;;;;;;4995631;28;20399;-46
2023/09/28 09:29:03;;;;;;;30.50;8.05;;;19.40;99.90;;;;;;4984102;28;20052;-49
2023/09/28 09:31:30;;;;;;;30.50;7.32;;;19.40;99.90;;;;;;4979766;28;20058;-50
2023/09/28 09:33:56;;;;;;;27.63;5.93;;;19.40;99.90;;;;;;5001609;28;20048;-47
2023/09/28 09:36:21;;;;;;;26.77;6.70;;;19.30;99.90;;;;;;5001247;28;20085;-49
2023/09/28 09:38:50;;;;;;;31.90;8.00;;;19.40;99.90;;;;;;5001697;28;20045;-48
2023/09/28 09:41:16;;;;;;;25.60;6.55;;;19.30;99.90;;;;;;4982556;28;20042;-48
2023/09/28 09:43:42;;;;;;;26.58;6.28;;;19.30;99.90;;;;;;4972469;28;20101;-50
2023/09/28 09:46:09;;;;;;;30.73;7.10;;;19.30;99.90;;;;;;5001413;28;20448;-49
2023/09/28 09:48:43;;;;;;;25.40;6.68;;;19.30;99.90;;;;;;4984331;28;20046;-50
2023/09/28 09:51:13;;;;;;;30.38;7.28;;;19.30;99.90;;;;;;5001028;28;20849;-48
2023/09/28 09:53:40;;;;;;;28.23;7.38;;;19.40;99.90;;;;;;5001242;28;20475;-48
2023/09/28 09:56:07;;;;;;;26.90;7.07;;;19.40;99.90;;;;;;5001153;28;20128;-49
2023/09/28 09:58:39;;;;;;;26.83;7.20;;;19.50;99.90;;;;;;5001540;28;20409;-47
2023/09/28 10:01:12;;;;;;;25.70;6.87;;;19.50;99.90;;;;;;5001761;28;20041;-46
2023/09/28 10:03:51;;;;;;;29.60;7.57;;;19.50;99.90;;;;;;4960229;28;20054;-45
2023/09/28 10:06:19;;;;;;;28.13;7.47;;;19.30;99.90;;;;;;4997073;28;20520;-47
2023/09/28 10:08:48;;;;;;;29.92;6.65;;;19.30;99.90;;;;;;5001210;28;20061;-46
2023/09/28 10:11:16;;;;;;;26.95;6.78;;;19.30;99.90;;;;;;4983978;28;20053;-48
2023/09/28 10:13:43;;;;;;;28.77;7.35;;;19.20;99.90;;;;;;5000357;28;20811;-45
2023/09/28 10:16:12;;;;;;;28.63;7.40;;;19.20;99.90;;;;;;4965715;28;20486;-45
2023/09/28 10:18:41;;;;;;;23.80;6.78;;;19.20;99.90;;;;;;4983689;28;20056;-45
2023/09/28 10:21:07;;;;;;;26.50;6.82;;;19.30;99.90;;;;;;5001203;28;20034;-46
2023/09/28 10:23:33;;;;;;;25.17;6.68;;;19.40;99.90;;;;;;5000710;28;20049;-45
2023/09/28 10:26:03;;;;;;;23.02;6.43;;;19.30;99.90;;;;;;5001065;28;20045;-46
2023/09/28 10:28:29;;;;;;;29.33;7.60;;;19.40;99.90;;;;;;4983478;28;20111;-45
2023/09/28 10:31:10;;;;;;;23.40;6.53;;;19.40;99.90;;;;;;4983913;28;20402;-49
2023/09/28 10:34:03;;;;;;;27.30;6.38;;;19.40;99.90;;;;;;4982877;28;20537;-46
2023/09/28 10:36:30;;;;;;;;;;;19.50;99.90;;;;;;5001069;28;20050;-49
2023/09/28 10:39:15;;;;;;;27.98;5.80;;;19.50;99.90;;;;;;4983021;28;19921;-46
2023/09/28 10:41:51;;;;;;;23.30;6.00;;;19.50;99.90;;;;;;4996462;28;20038;-46
2023/09/28 10:44:18;;;;;;;22.45;5.78;;;19.60;99.90;;;;;;4993945;28;20048;-46
2023/09/28 10:46:47;;;;;;;26.55;5.63;;;19.60;99.90;;;;;;4995867;28;20127;-45
2023/09/28 10:49:33;;;;;;;29.70;7.28;;;19.80;99.90;;;;;;4983126;28;20046;-47
2023/09/28 10:51:59;;;;;;;24.20;6.07;;;19.60;99.90;;;;;;5000218;28;20283;-45
2023/09/28 10:54:25;;;;;;;27.52;7.38;;;19.70;99.90;;;;;;4999870;28;20053;-48
2023/09/28 10:56:51;;;;;;;29.58;6.32;;;19.70;99.90;;;;;;4982660;28;20502;-46
2023/09/28 10:59:21;;;;;;;28.55;6.63;;;19.70;99.90;;;;;;5000653;28;20165;-45
2023/09/28 11:01:48;;;;;;;27.65;6.80;;;19.70;99.90;;;;;;4996800;28;20046;-46
2023/09/28 11:04:16;;;;;;;27.73;6.22;;;19.70;99.90;;;;;;4973031;28;20046;-50
2023/09/28 11:06:43;;;;;;;26.55;6.88;;;19.70;99.90;;;;;;4982323;28;20551;-46
2023/09/28 11:09:11;;;;;;;25.50;6.88;;;19.70;99.90;;;;;;5000170;28;20062;-47
2023/09/28 11:11:39;;;;;;;26.33;6.60;;;19.70;99.90;;;;;;5000330;28;20128;-46
2023/09/28 11:14:06;;;;;;;21.48;5.57;;;19.70;99.90;;;;;;4964948;28;20054;-46
2023/09/28 11:16:33;;;;;;;20.95;6.57;;;19.70;99.90;;;;;;4982169;28;20088;-46
2023/09/28 11:19:00;;;;;;;26.80;6.93;;;19.70;99.90;;;;;;4999669;28;20152;-47
2023/09/28 11:21:26;;;;;;;23.50;6.57;;;19.70;99.90;;;;;;4965791;28;20052;-45
2023/09/28 11:23:52;;;;;;;25.00;6.82;;;19.70;99.90;;;;;;4985949;28;20048;-46
2023/09/28 11:26:19;;;;;;;29.77;6.80;;;19.70;99.90;;;;;;4998650;28;20046;-46
2023/09/28 11:28:45;;;;;;;31.15;7.97;;;19.70;99.90;;;;;;4999900;28;20034;-46
2023/09/28 11:31:14;;;;;;;24.67;6.63;;;19.80;99.90;;;;;;4999693;28;20045;-48
2023/09/28 11:33:42;;;;;;;32.13;6.88;;;19.90;99.90;;;;;;5018563;28;20052;-46
2023/09/28 11:36:20;;;;;;;24.23;5.85;;;19.90;99.90;;;;;;5010680;28;20037;-46
2023/09/28 11:38:47;;;;;;;24.92;6.85;;;19.70;99.90;;;;;;4982763;28;20125;-47
2023/09/28 11:41:13;;;;;;;27.98;7.18;;;19.70;99.90;;;;;;4998424;28;20511;-45
2023/09/28 11:43:58;;;;;;;20.73;6.78;;;19.80;99.90;;;;;;4987543;28;20131;-47
2023/09/28 11:46:30;;;;;;;22.00;5.82;;;19.80;99.90;;;;;;4981648;28;20094;-46
2023/09/28 11:49:06;;;;;;;21.73;6.10;;;19.90;99.90;;;;;;4999054;28;20046;-45
2023/09/28 11:51:33;;;;;;;22.60;5.75;;;20.00;99.90;;;;;;4981108;28;20041;-46
2023/09/28 11:54:00;;;;;;;23.33;6.00;;;20.00;99.90;;;;;;4998182;28;20450;-45
2023/09/28 11:56:27;;;;;;;27.23;6.57;;;20.00;99.90;;;;;;4998972;28;20156;-44
2023/09/28 11:58:53;;;;;;;24.95;6.00;;;20.20;99.90;;;;;;4998572;28;20096;-46
2023/09/28 12:01:19;;;;;;;29.23;6.25;;;20.30;99.90;;;;;;4998558;28;20129;-45
2023/09/28 12:03:47;;;;;;;25.98;5.53;;;20.20;99.90;;;;;;4992839;28;20060;-45
2023/09/28 12:06:13;;;;;;;23.05;5.70;;;20.10;99.90;;;;;;4998365;28;20045;-46
2023/09/28 12:08:40;;;;;;;24.23;5.85;;;20.00;99.90;;;;;;4998919;28;20072;-45
2023/09/28 12:11:05;;;;;;;19.33;5.25;;;19.80;99.90;;;;;;4991868;28;20104;-47
2023/09/28 12:13:31;;;;;;;22.85;7.30;;;19.60;99.90;;;;;;4996507;28;20096;-46
2023/09/28 12:15:57;;;;;;;24.77;6.28;;;19.60;99.90;;;;;;4998878;28;20046;-46
2023/09/28 12:18:22;;;;;;;26.55;6.57;;;19.70;99.90;;;;;;4981714;28;20048;-46
2023/09/28 12:20:48;;;;;;;17.90;6.03;;;19.80;99.90;;;;;;5000069;28;20069;-47
2023/09/28 12:23:14;;;;;;;22.63;6.15;;;19.80;99.90;;;;;;4981956;28;20108;-50
2023/09/28 12:25:40;;;;;;;25.70;6.95;;;19.80;99.90;;;;;;4999143;28;20149;-46
2023/09/28 12:28:07;;;;;;;19.13;5.22;;;19.80;99.90;;;;;;4981864;28;20050;-46
2023/09/28 12:30:32;;;;;;;25.13;6.18;;;19.80;99.90;;;;;;5000002;28;20057;-47
2023/09/28 12:32:59;;;;;;;23.33;5.25;;;19.80;99.90;;;;;;4999735;28;20046;-49
2023/09/28 12:35:26;;;;;;;21.48;5.95;;;19.70;99.90;;;;;;4999523;28;20081;-48
2023/09/28 12:37:53;;;;;;;22.13;5.65;;;19.70;99.90;;;;;;4999923;28;20130;-49